Slagle, Missouri
Current Conditions -  °F | °C
As of 10:52 AM on Friday 28 Nov 2014 (Local Time) from KSGF Reporting Station
Clear Clear  
Wind Chill: 51°   Ceiling: Unl
Heat Index: 51°   Visibility: 10mi
Dew Point: 29°   Wind: 22mph
Humidity: 43%   Direction: 190°S
Pressure: 30.06"   Gusts: NA
Location:  37.6066°N, 93.4143°W
Report Text: KSGF 281652Z 19019KT 10SM CLR 11/M02 A3006 RMK AO2 PK WND 20027/1632 SLP184 T01061017
Loading
Personal Weather Stations






























Interactive Weather Map New forecast layout! Learn more

10-Day Weather Forecast

Advertisements
Track Severe Weather on mobile